Aeroporto :
LOGIN :

Iscrizione | Disclaimer

   EN    FR    IT 

 










Sommario :    VFR   VFR Marginale   IFR   IFR Intensivo   IFR Molto Intensivo
Visibilità : 
Base nubi : 
>= 8 km
>= 3000ft
5 / 8 km
1000 / 3000 ft
1500m / 5 km
500 / 1000 ft
800 / 1500m
200 / 500 ft
< 800m
< 200 ft
Simboli :   Temporali  Nebbia  Neve Forte  Precipitazioni Forti  Vento > 20 kt
SIGMETs :   Varie  Temporali  Ghiacco  Turbolenza  Onda orograficha  Ceneri Vulcaniche






- Altitudine del aeroporto : 181 ft


ESIB - Satenas AB

ULTIMO METAR :
  • 081250Z 24017KT CAVOK 14/03 Q1022

METARs OBSOLETI :
  • 081220Z 24018KT 9999 FEW040 BKN200 14/02 Q1022
  • 081150Z 24017KT 9999 FEW040 BKN200 14/M00 Q1023
  • 081120Z 23016KT 9999 FEW040 BKN200 14/01 Q1023
  • 081050Z 23015KT 9999 FEW040 BKN200 13/01 Q1024
  • 081020Z 23016KT 9999 FEW045 BKN200 13/02 Q1024
  • 080950Z 23016KT CAVOK 12/02 Q1025

Previsioni scadute.



MetMap, La meteo Aeronautica in un colpo d'occhio ! - Copyright ORBIFLY Dicembre 2007 - Disclaimer

ORBIFLY MET'MAP TEAM :

Programmazione e sviluppo : Alexandra Zaïnal
Concezione : Baudouin d'Aumeries
Aiuto per la programmazione : Marc-Olivier Méhu
Supporto tecnico e logistico : Manuel Goepfert
Aiuto per la traduzione : Arnaldo La Scala

Contatto : metmap@orbifly.com




FONTI E CREDITI :

   NOAA